sensor_id;sensor_type;location;lat;lon;timestamp;pressure;altitude;pressure_sealevel;temperature;humidity
61554;BME280;47425;51.976;5.326;2023-02-28T00:00:53;103011.31;;;3.70;56.68
61554;BME280;47425;51.976;5.326;2023-02-28T00:03:26;103009.69;;;3.73;55.96
61554;BME280;47425;51.976;5.326;2023-02-28T00:05:52;103012.84;;;3.65;56.58
61554;BME280;47425;51.976;5.326;2023-02-28T00:08:31;103008.66;;;3.69;56.11
61554;BME280;47425;51.976;5.326;2023-02-28T00:11:07;103012.09;;;3.68;56.37
61554;BME280;47425;51.976;5.326;2023-02-28T00:13:39;103004.44;;;3.71;56.40
61554;BME280;47425;51.976;5.326;2023-02-28T00:16:24;103007.22;;;3.76;56.22
61554;BME280;47425;51.976;5.326;2023-02-28T00:18:55;103012.38;;;3.76;56.24
61554;BME280;47425;51.976;5.326;2023-02-28T00:21:21;103007.41;;;3.80;55.95
61554;BME280;47425;51.976;5.326;2023-02-28T00:23:49;103007.66;;;3.65;55.88
61554;BME280;47425;51.976;5.326;2023-02-28T00:26:23;103010.66;;;3.55;56.31
61554;BME280;47425;51.976;5.326;2023-02-28T00:30:42;103019.59;;;3.62;56.68
61554;BME280;47425;51.976;5.326;2023-02-28T00:32:11;103017.94;;;3.64;57.13
61554;BME280;47425;51.976;5.326;2023-02-28T00:34:40;103014.75;;;3.69;56.47
61554;BME280;47425;51.976;5.326;2023-02-28T00:37:07;103014.00;;;3.72;56.71
61554;BME280;47425;51.976;5.326;2023-02-28T00:39:38;103010.78;;;3.78;56.43
61554;BME280;47425;51.976;5.326;2023-02-28T00:42:16;103013.03;;;3.70;56.95
61554;BME280;47425;51.976;5.326;2023-02-28T00:44:42;103015.25;;;3.82;56.91
61554;BME280;47425;51.976;5.326;2023-02-28T00:47:22;103011.53;;;3.75;56.51
61554;BME280;47425;51.976;5.326;2023-02-28T00:50:04;103007.09;;;3.73;56.88
61554;BME280;47425;51.976;5.326;2023-02-28T00:52:36;102998.91;;;3.83;57.36
61554;BME280;47425;51.976;5.326;2023-02-28T00:55:04;103000.34;;;3.97;57.29
61554;BME280;47425;51.976;5.326;2023-02-28T00:57:38;103002.22;;;4.01;56.84
61554;BME280;47425;51.976;5.326;2023-02-28T01:00:09;103002.16;;;4.00;57.33
61554;BME280;47425;51.976;5.326;2023-02-28T01:02:36;103004.53;;;3.94;56.92
61554;BME280;47425;51.976;5.326;2023-02-28T01:05:04;103006.03;;;3.89;57.07
61554;BME280;47425;51.976;5.326;2023-02-28T01:07:31;103012.84;;;3.86;57.11
61554;BME280;47425;51.976;5.326;2023-02-28T01:10:12;103018.94;;;4.08;58.18
61554;BME280;47425;51.976;5.326;2023-02-28T01:13:03;103011.97;;;4.28;57.16
61554;BME280;47425;51.976;5.326;2023-02-28T01:15:36;103009.56;;;4.33;57.19
61554;BME280;47425;51.976;5.326;2023-02-28T01:18:06;103009.47;;;4.30;57.30
61554;BME280;47425;51.976;5.326;2023-02-28T01:20:32;103016.34;;;4.29;57.12
61554;BME280;47425;51.976;5.326;2023-02-28T01:23:00;103007.91;;;4.35;58.17
61554;BME280;47425;51.976;5.326;2023-02-28T01:25:38;103009.63;;;4.56;57.77
61554;BME280;47425;51.976;5.326;2023-02-28T01:31:17;103002.06;;;4.62;57.31
61554;BME280;47425;51.976;5.326;2023-02-28T01:33:48;102996.03;;;4.63;57.58
61554;BME280;47425;51.976;5.326;2023-02-28T01:36:19;102995.13;;;4.61;57.33
61554;BME280;47425;51.976;5.326;2023-02-28T01:39:25;102994.97;;;4.58;57.36
61554;BME280;47425;51.976;5.326;2023-02-28T01:41:44;102995.25;;;4.43;56.96
61554;BME280;47425;51.976;5.326;2023-02-28T01:47:07;102993.44;;;4.40;57.78
61554;BME280;47425;51.976;5.326;2023-02-28T01:49:35;102997.97;;;4.68;57.90
61554;BME280;47425;51.976;5.326;2023-02-28T01:52:01;102994.75;;;4.74;57.84
61554;BME280;47425;51.976;5.326;2023-02-28T01:54:33;102990.56;;;4.78;56.97
61554;BME280;47425;51.976;5.326;2023-02-28T01:57:08;102995.69;;;4.76;57.10
61554;BME280;47425;51.976;5.326;2023-02-28T01:59:38;102998.75;;;4.66;56.70
61554;BME280;47425;51.976;5.326;2023-02-28T02:02:17;102987.94;;;4.55;57.04
61554;BME280;47425;51.976;5.326;2023-02-28T02:04:53;102990.69;;;4.58;56.78
61554;BME280;47425;51.976;5.326;2023-02-28T02:07:24;102993.50;;;4.64;57.33
61554;BME280;47425;51.976;5.326;2023-02-28T02:10:04;102989.56;;;4.74;56.81
61554;BME280;47425;51.976;5.326;2023-02-28T02:12:57;102977.75;;;4.82;56.97
61554;BME280;47425;51.976;5.326;2023-02-28T02:15:33;102979.81;;;4.91;56.22
61554;BME280;47425;51.976;5.326;2023-02-28T02:18:05;102976.09;;;4.84;56.26
61554;BME280;47425;51.976;5.326;2023-02-28T02:26:34;102974.13;;;5.01;56.08
61554;BME280;47425;51.976;5.326;2023-02-28T02:29:19;102978.25;;;5.19;55.70
61554;BME280;47425;51.976;5.326;2023-02-28T02:32:09;102976.25;;;5.12;55.24
61554;BME280;47425;51.976;5.326;2023-02-28T02:34:44;102974.03;;;4.98;55.42
61554;BME280;47425;51.976;5.326;2023-02-28T02:37:22;102974.81;;;4.96;55.87
61554;BME280;47425;51.976;5.326;2023-02-28T02:39:57;102973.19;;;4.99;55.68
61554;BME280;47425;51.976;5.326;2023-02-28T02:42:34;102976.06;;;5.07;55.25
61554;BME280;47425;51.976;5.326;2023-02-28T02:45:17;102981.22;;;5.06;55.20
61554;BME280;47425;51.976;5.326;2023-02-28T02:47:56;102986.13;;;4.98;55.45
61554;BME280;47425;51.976;5.326;2023-02-28T02:50:35;102986.94;;;4.97;55.16
61554;BME280;47425;51.976;5.326;2023-02-28T02:53:06;102981.81;;;4.98;55.23
61554;BME280;47425;51.976;5.326;2023-02-28T02:55:40;102988.50;;;4.92;55.21
61554;BME280;47425;51.976;5.326;2023-02-28T02:58:10;102996.81;;;4.83;55.98
61554;BME280;47425;51.976;5.326;2023-02-28T03:00:41;102994.06;;;4.78;56.08
61554;BME280;47425;51.976;5.326;2023-02-28T03:03:21;102992.09;;;4.73;56.14
61554;BME280;47425;51.976;5.326;2023-02-28T03:06:14;102988.09;;;4.81;56.45
61554;BME280;47425;51.976;5.326;2023-02-28T03:08:42;102985.53;;;5.05;56.40
61554;BME280;47425;51.976;5.326;2023-02-28T03:11:12;102993.06;;;5.21;55.68
61554;BME280;47425;51.976;5.326;2023-02-28T03:16:31;102997.81;;;4.86;55.59
61554;BME280;47425;51.976;5.326;2023-02-28T03:19:08;103001.59;;;4.72;56.44
61554;BME280;47425;51.976;5.326;2023-02-28T03:24:52;102995.69;;;4.53;56.47
61554;BME280;47425;51.976;5.326;2023-02-28T03:27:41;102994.16;;;4.59;57.07
61554;BME280;47425;51.976;5.326;2023-02-28T03:30:13;102991.88;;;4.66;57.29
61554;BME280;47425;51.976;5.326;2023-02-28T03:32:44;102989.69;;;4.77;57.15
61554;BME280;47425;51.976;5.326;2023-02-28T03:35:27;102999.88;;;4.95;56.49
61554;BME280;47425;51.976;5.326;2023-02-28T03:38:03;102996.41;;;4.95;56.19
61554;BME280;47425;51.976;5.326;2023-02-28T03:40:37;102997.06;;;4.89;57.08
61554;BME280;47425;51.976;5.326;2023-02-28T03:43:11;102996.44;;;4.96;56.48
61554;BME280;47425;51.976;5.326;2023-02-28T03:48:37;102996.16;;;4.88;56.44
61554;BME280;47425;51.976;5.326;2023-02-28T03:51:28;102999.03;;;4.96;56.46
61554;BME280;47425;51.976;5.326;2023-02-28T03:54:04;102993.19;;;5.02;55.98
61554;BME280;47425;51.976;5.326;2023-02-28T03:56:37;102995.22;;;5.09;55.75
61554;BME280;47425;51.976;5.326;2023-02-28T03:59:20;102995.84;;;5.03;55.79
61554;BME280;47425;51.976;5.326;2023-02-28T04:02:00;103003.94;;;4.88;56.23
61554;BME280;47425;51.976;5.326;2023-02-28T04:04:31;102988.66;;;4.96;56.32
61554;BME280;47425;51.976;5.326;2023-02-28T04:07:15;102999.41;;;5.06;55.83
61554;BME280;47425;51.976;5.326;2023-02-28T04:09:51;103001.88;;;5.02;55.63
61554;BME280;47425;51.976;5.326;2023-02-28T04:15:45;103004.47;;;5.02;55.82
61554;BME280;47425;51.976;5.326;2023-02-28T04:18:11;103006.34;;;5.29;55.74
61554;BME280;47425;51.976;5.326;2023-02-28T04:20:37;103009.47;;;5.20;54.35
61554;BME280;47425;51.976;5.326;2023-02-28T04:23:12;103014.59;;;5.19;53.99
61554;BME280;47425;51.976;5.326;2023-02-28T04:25:49;103011.56;;;5.07;53.68
61554;BME280;47425;51.976;5.326;2023-02-28T04:28:30;103003.41;;;5.20;54.40
61554;BME280;47425;51.976;5.326;2023-02-28T04:31:07;103016.66;;;5.28;53.81
61554;BME280;47425;51.976;5.326;2023-02-28T04:33:34;103021.72;;;5.25;53.69
61554;BME280;47425;51.976;5.326;2023-02-28T04:36:12;103014.00;;;5.26;53.12
61554;BME280;47425;51.976;5.326;2023-02-28T04:38:40;103022.28;;;5.16;52.98
61554;BME280;47425;51.976;5.326;2023-02-28T04:41:06;103023.72;;;5.08;53.20
61554;BME280;47425;51.976;5.326;2023-02-28T04:43:39;103015.75;;;5.27;54.47
61554;BME280;47425;51.976;5.326;2023-02-28T04:46:17;103030.03;;;5.63;54.11
61554;BME280;47425;51.976;5.326;2023-02-28T04:48:45;103020.44;;;5.86;52.79
61554;BME280;47425;51.976;5.326;2023-02-28T04:51:14;103031.94;;;5.93;53.58
61554;BME280;47425;51.976;5.326;2023-02-28T04:53:41;103027.31;;;6.35;52.73
61554;BME280;47425;51.976;5.326;2023-02-28T04:56:11;103027.66;;;6.46;52.46
61554;BME280;47425;51.976;5.326;2023-02-28T04:58:38;103030.47;;;6.27;51.20
61554;BME280;47425;51.976;5.326;2023-02-28T05:01:14;103028.69;;;5.98;52.54
61554;BME280;47425;51.976;5.326;2023-02-28T05:03:46;103027.69;;;6.20;52.26
61554;BME280;47425;51.976;5.326;2023-02-28T05:06:20;103029.53;;;6.23;51.46
61554;BME280;47425;51.976;5.326;2023-02-28T05:08:58;103035.31;;;5.90;50.81
61554;BME280;47425;51.976;5.326;2023-02-28T05:11:32;103032.97;;;5.48;51.21
61554;BME280;47425;51.976;5.326;2023-02-28T05:14:09;103033.69;;;5.44;52.73
61554;BME280;47425;51.976;5.326;2023-02-28T05:16:37;103028.72;;;5.50;53.05
61554;BME280;47425;51.976;5.326;2023-02-28T05:19:29;103032.53;;;5.85;52.61
61554;BME280;47425;51.976;5.326;2023-02-28T05:22:03;103029.94;;;5.85;52.00
61554;BME280;47425;51.976;5.326;2023-02-28T05:25:06;103031.56;;;5.82;52.38
61554;BME280;47425;51.976;5.326;2023-02-28T05:27:39;103032.38;;;5.81;51.91
61554;BME280;47425;51.976;5.326;2023-02-28T05:30:08;103027.28;;;5.58;51.66
61554;BME280;47425;51.976;5.326;2023-02-28T05:32:40;103027.13;;;5.29;51.92
61554;BME280;47425;51.976;5.326;2023-02-28T05:35:27;103021.19;;;5.09;52.68
61554;BME280;47425;51.976;5.326;2023-02-28T05:37:57;103022.59;;;5.01;52.71
61554;BME280;47425;51.976;5.326;2023-02-28T05:40:25;103014.88;;;5.02;52.88
61554;BME280;47425;51.976;5.326;2023-02-28T05:42:58;103020.41;;;5.12;52.63
61554;BME280;47425;51.976;5.326;2023-02-28T05:45:36;103007.63;;;5.18;52.77
61554;BME280;47425;51.976;5.326;2023-02-28T05:48:12;103005.09;;;5.19;52.56
61554;BME280;47425;51.976;5.326;2023-02-28T05:50:44;103005.28;;;5.24;52.39
61554;BME280;47425;51.976;5.326;2023-02-28T05:53:33;103001.78;;;5.24;52.58
61554;BME280;47425;51.976;5.326;2023-02-28T05:56:00;103010.94;;;5.14;52.36
61554;BME280;47425;51.976;5.326;2023-02-28T05:58:27;103017.81;;;5.12;52.64
61554;BME280;47425;51.976;5.326;2023-02-28T06:03:46;103024.31;;;4.78;53.05
61554;BME280;47425;51.976;5.326;2023-02-28T06:06:36;103015.13;;;4.63;53.40
61554;BME280;47425;51.976;5.326;2023-02-28T06:09:25;103019.31;;;4.39;53.90
61554;BME280;47425;51.976;5.326;2023-02-28T06:11:55;103013.94;;;4.34;54.58
61554;BME280;47425;51.976;5.326;2023-02-28T06:14:27;103009.69;;;4.15;54.59
61554;BME280;47425;51.976;5.326;2023-02-28T06:16:55;103002.56;;;4.09;55.27
61554;BME280;47425;51.976;5.326;2023-02-28T06:19:23;102999.47;;;3.97;55.06
61554;BME280;47425;51.976;5.326;2023-02-28T06:21:52;102999.56;;;4.00;55.25
61554;BME280;47425;51.976;5.326;2023-02-28T06:24:22;103002.69;;;4.12;55.74
61554;BME280;47425;51.976;5.326;2023-02-28T06:26:53;103002.81;;;4.15;55.25
61554;BME280;47425;51.976;5.326;2023-02-28T06:29:19;103003.56;;;4.13;55.70
61554;BME280;47425;51.976;5.326;2023-02-28T06:32:06;103012.44;;;4.18;55.64
61554;BME280;47425;51.976;5.326;2023-02-28T06:34:32;103020.38;;;4.23;55.79
61554;BME280;47425;51.976;5.326;2023-02-28T06:37:04;103018.13;;;4.30;55.67
61554;BME280;47425;51.976;5.326;2023-02-28T06:39:44;103018.31;;;4.14;55.81
61554;BME280;47425;51.976;5.326;2023-02-28T06:42:17;103015.09;;;4.19;55.86
61554;BME280;47425;51.976;5.326;2023-02-28T06:45:07;103020.00;;;4.34;55.80
61554;BME280;47425;51.976;5.326;2023-02-28T06:47:50;103014.94;;;4.37;55.72
61554;BME280;47425;51.976;5.326;2023-02-28T06:50:22;103018.97;;;4.52;55.95
61554;BME280;47425;51.976;5.326;2023-02-28T06:52:55;103021.34;;;4.68;55.85
61554;BME280;47425;51.976;5.326;2023-02-28T06:55:24;103023.47;;;4.79;55.36
61554;BME280;47425;51.976;5.326;2023-02-28T06:58:09;103022.78;;;4.83;55.28
61554;BME280;47425;51.976;5.326;2023-02-28T07:00:41;103024.25;;;4.99;55.14
61554;BME280;47425;51.976;5.326;2023-02-28T07:03:16;103021.22;;;5.11;54.80
61554;BME280;47425;51.976;5.326;2023-02-28T07:05:43;103036.09;;;5.15;54.87
61554;BME280;47425;51.976;5.326;2023-02-28T07:08:16;103026.97;;;5.26;55.15
61554;BME280;47425;51.976;5.326;2023-02-28T07:11:03;103031.94;;;5.43;54.46
61554;BME280;47425;51.976;5.326;2023-02-28T07:13:32;103039.53;;;5.38;54.34
61554;BME280;47425;51.976;5.326;2023-02-28T07:16:00;103040.25;;;5.34;54.45
61554;BME280;47425;51.976;5.326;2023-02-28T07:18:32;103047.50;;;5.18;54.45
61554;BME280;47425;51.976;5.326;2023-02-28T07:21:12;103046.50;;;5.15;54.82
61554;BME280;47425;51.976;5.326;2023-02-28T07:23:44;103044.41;;;5.29;55.07
61554;BME280;47425;51.976;5.326;2023-02-28T07:26:16;103046.75;;;5.45;54.63
61554;BME280;47425;51.976;5.326;2023-02-28T07:28:48;103045.50;;;5.35;53.87
61554;BME280;47425;51.976;5.326;2023-02-28T07:31:15;103050.81;;;5.14;54.58
61554;BME280;47425;51.976;5.326;2023-02-28T07:33:42;103048.38;;;5.19;54.86
61554;BME280;47425;51.976;5.326;2023-02-28T07:36:11;103040.63;;;5.20;54.36
61554;BME280;47425;51.976;5.326;2023-02-28T07:38:45;103038.47;;;5.09;54.62
61554;BME280;47425;51.976;5.326;2023-02-28T07:41:14;103045.47;;;5.34;55.44
61554;BME280;47425;51.976;5.326;2023-02-28T07:43:41;103057.41;;;5.53;54.59
61554;BME280;47425;51.976;5.326;2023-02-28T07:46:10;103056.91;;;5.63;54.20
61554;BME280;47425;51.976;5.326;2023-02-28T07:49:10;103053.06;;;5.52;53.52
61554;BME280;47425;51.976;5.326;2023-02-28T07:51:32;103065.66;;;5.65;54.63
61554;BME280;47425;51.976;5.326;2023-02-28T07:54:02;103067.19;;;6.09;55.21
61554;BME280;47425;51.976;5.326;2023-02-28T07:56:34;103062.19;;;6.68;53.59
61554;BME280;47425;51.976;5.326;2023-02-28T07:59:12;103061.63;;;6.78;52.76
61554;BME280;47425;51.976;5.326;2023-02-28T08:01:48;103063.22;;;6.73;52.88
61554;BME280;47425;51.976;5.326;2023-02-28T08:04:33;103056.19;;;6.70;52.32
61554;BME280;47425;51.976;5.326;2023-02-28T08:07:04;103066.69;;;6.74;52.13
61554;BME280;47425;51.976;5.326;2023-02-28T08:09:35;103060.47;;;6.97;53.04
61554;BME280;47425;51.976;5.326;2023-02-28T08:12:08;103070.50;;;7.43;52.79
61554;BME280;47425;51.976;5.326;2023-02-28T08:14:34;103077.81;;;7.88;51.53
61554;BME280;47425;51.976;5.326;2023-02-28T08:17:02;103080.91;;;8.06;50.46
61554;BME280;47425;51.976;5.326;2023-02-28T08:19:36;103070.59;;;8.11;50.86
61554;BME280;47425;51.976;5.326;2023-02-28T08:22:04;103066.00;;;8.36;49.78
61554;BME280;47425;51.976;5.326;2023-02-28T08:24:45;103073.81;;;8.71;50.89
61554;BME280;47425;51.976;5.326;2023-02-28T08:27:15;103069.97;;;8.93;48.13
61554;BME280;47425;51.976;5.326;2023-02-28T08:29:46;103068.41;;;9.01;48.24
61554;BME280;47425;51.976;5.326;2023-02-28T08:32:13;103073.75;;;8.68;45.99
61554;BME280;47425;51.976;5.326;2023-02-28T08:34:42;103071.53;;;8.48;47.49
61554;BME280;47425;51.976;5.326;2023-02-28T08:37:14;103086.34;;;8.48;46.55
61554;BME280;47425;51.976;5.326;2023-02-28T08:39:50;103084.91;;;8.27;46.42
61554;BME280;47425;51.976;5.326;2023-02-28T08:42:21;103075.28;;;8.25;47.08
61554;BME280;47425;51.976;5.326;2023-02-28T08:44:52;103070.16;;;8.63;48.09
61554;BME280;47425;51.976;5.326;2023-02-28T08:50:04;103072.72;;;9.86;46.43
61554;BME280;47425;51.976;5.326;2023-02-28T08:52:31;103077.56;;;9.65;44.36
61554;BME280;47425;51.976;5.326;2023-02-28T08:54:59;103084.41;;;9.60;44.73
61554;BME280;47425;51.976;5.326;2023-02-28T08:57:30;103076.72;;;9.66;44.35
61554;BME280;47425;51.976;5.326;2023-02-28T08:59:58;103073.91;;;10.04;45.41
61554;BME280;47425;51.976;5.326;2023-02-28T09:02:28;103067.06;;;10.64;45.58
61554;BME280;47425;51.976;5.326;2023-02-28T09:04:58;103058.03;;;11.05;45.20
61554;BME280;47425;51.976;5.326;2023-02-28T09:07:26;103073.44;;;11.49;44.59
61554;BME280;47425;51.976;5.326;2023-02-28T09:18:43;103082.97;;;12.22;42.74
61554;BME280;47425;51.976;5.326;2023-02-28T09:21:40;103086.69;;;12.48;40.39
61554;BME280;47425;51.976;5.326;2023-02-28T09:24:07;103078.81;;;12.51;41.79
61554;BME280;47425;51.976;5.326;2023-02-28T09:29:38;103082.22;;;12.37;41.09
61554;BME280;47425;51.976;5.326;2023-02-28T09:32:06;103079.50;;;12.27;38.46
61554;BME280;47425;51.976;5.326;2023-02-28T09:34:40;103087.31;;;12.19;39.58
61554;BME280;47425;51.976;5.326;2023-02-28T09:37:09;103086.97;;;11.88;38.81
61554;BME280;47425;51.976;5.326;2023-02-28T09:39:36;103084.88;;;11.54;38.52
61554;BME280;47425;51.976;5.326;2023-02-28T09:42:02;103083.84;;;11.41;39.26
61554;BME280;47425;51.976;5.326;2023-02-28T09:44:30;103079.63;;;11.57;40.35
61554;BME280;47425;51.976;5.326;2023-02-28T09:47:00;103086.72;;;11.62;39.63
61554;BME280;47425;51.976;5.326;2023-02-28T09:49:42;103079.25;;;11.99;39.70
61554;BME280;47425;51.976;5.326;2023-02-28T09:52:20;103087.50;;;12.42;41.36
61554;BME280;47425;51.976;5.326;2023-02-28T09:54:54;103082.22;;;12.39;37.91
61554;BME280;47425;51.976;5.326;2023-02-28T09:57:32;103082.13;;;12.23;37.82
61554;BME280;47425;51.976;5.326;2023-02-28T10:00:07;103082.25;;;12.42;40.19
61554;BME280;47425;51.976;5.326;2023-02-28T10:02:48;103083.38;;;12.78;37.69
61554;BME280;47425;51.976;5.326;2023-02-28T10:05:28;103080.50;;;12.42;35.61
61554;BME280;47425;51.976;5.326;2023-02-28T10:08:12;103079.44;;;12.22;37.71
61554;BME280;47425;51.976;5.326;2023-02-28T10:11:16;103072.31;;;12.05;34.56
61554;BME280;47425;51.976;5.326;2023-02-28T10:14:10;103075.50;;;11.78;33.41
61554;BME280;47425;51.976;5.326;2023-02-28T10:16:43;103073.41;;;11.46;36.32
61554;BME280;47425;51.976;5.326;2023-02-28T10:19:27;103074.38;;;11.57;35.87
61554;BME280;47425;51.976;5.326;2023-02-28T10:22:08;103066.81;;;11.82;39.44
61554;BME280;47425;51.976;5.326;2023-02-28T10:24:43;103071.44;;;11.28;34.62
61554;BME280;47425;51.976;5.326;2023-02-28T10:27:55;103064.72;;;11.52;36.13
61554;BME280;47425;51.976;5.326;2023-02-28T10:30:24;103062.28;;;11.67;36.72
61554;BME280;47425;51.976;5.326;2023-02-28T10:32:51;103062.75;;;11.32;35.38
61554;BME280;47425;51.976;5.326;2023-02-28T10:35:26;103062.22;;;11.64;36.87
61554;BME280;47425;51.976;5.326;2023-02-28T10:37:55;103067.75;;;11.92;36.16
61554;BME280;47425;51.976;5.326;2023-02-28T10:40:27;103065.63;;;11.54;33.84
61554;BME280;47425;51.976;5.326;2023-02-28T10:42:54;103068.56;;;11.08;34.31
61554;BME280;47425;51.976;5.326;2023-02-28T10:45:28;103060.72;;;11.08;36.22
61554;BME280;47425;51.976;5.326;2023-02-28T10:47:59;103067.81;;;11.18;36.10
61554;BME280;47425;51.976;5.326;2023-02-28T10:50:51;103068.84;;;11.30;36.92
61554;BME280;47425;51.976;5.326;2023-02-28T10:53:30;103069.31;;;11.71;38.65
61554;BME280;47425;51.976;5.326;2023-02-28T10:56:00;103063.34;;;11.86;35.71
61554;BME280;47425;51.976;5.326;2023-02-28T10:58:44;103062.63;;;12.01;38.98
61554;BME280;47425;51.976;5.326;2023-02-28T11:01:14;103054.91;;;12.17;35.40
61554;BME280;47425;51.976;5.326;2023-02-28T11:03:49;103044.28;;;11.23;30.04
61554;BME280;47425;51.976;5.326;2023-02-28T11:06:41;103040.31;;;10.87;32.90
61554;BME280;47425;51.976;5.326;2023-02-28T11:09:20;103049.19;;;10.98;37.20
61554;BME280;47425;51.976;5.326;2023-02-28T11:12:28;103038.13;;;11.22;36.28
61554;BME280;47425;51.976;5.326;2023-02-28T11:15:18;103042.03;;;11.55;36.86
61554;BME280;47425;51.976;5.326;2023-02-28T11:17:57;103034.47;;;11.88;36.54
61554;BME280;47425;51.976;5.326;2023-02-28T11:20:30;103031.97;;;11.99;36.03
61554;BME280;47425;51.976;5.326;2023-02-28T11:23:03;103034.34;;;11.72;35.14
61554;BME280;47425;51.976;5.326;2023-02-28T11:25:46;103035.13;;;11.65;36.21
61554;BME280;47425;51.976;5.326;2023-02-28T11:28:27;103036.75;;;11.51;35.45
61554;BME280;47425;51.976;5.326;2023-02-28T11:31:09;103035.19;;;11.71;37.83
61554;BME280;47425;51.976;5.326;2023-02-28T11:33:56;103031.91;;;11.92;35.53
61554;BME280;47425;51.976;5.326;2023-02-28T11:36:43;103023.03;;;11.83;38.17
61554;BME280;47425;51.976;5.326;2023-02-28T11:39:13;103021.78;;;12.37;38.79
61554;BME280;47425;51.976;5.326;2023-02-28T11:41:56;103017.56;;;12.64;35.74
61554;BME280;47425;51.976;5.326;2023-02-28T11:44:43;103012.94;;;12.26;34.33
61554;BME280;47425;51.976;5.326;2023-02-28T11:47:28;103009.34;;;12.13;33.89
61554;BME280;47425;51.976;5.326;2023-02-28T11:50:14;103016.31;;;12.09;35.66
61554;BME280;47425;51.976;5.326;2023-02-28T11:52:52;103007.78;;;11.45;30.93
61554;BME280;47425;51.976;5.326;2023-02-28T11:55:27;103005.78;;;11.22;35.85
61554;BME280;47425;51.976;5.326;2023-02-28T11:58:05;103008.94;;;11.71;38.37
61554;BME280;47425;51.976;5.326;2023-02-28T12:03:43;103004.09;;;11.27;34.09
61554;BME280;47425;51.976;5.326;2023-02-28T12:06:27;103010.53;;;11.55;35.33
61554;BME280;47425;51.976;5.326;2023-02-28T12:09:02;103001.16;;;11.79;34.71
61554;BME280;47425;51.976;5.326;2023-02-28T12:11:38;103000.50;;;12.03;37.71
61554;BME280;47425;51.976;5.326;2023-02-28T12:17:04;102992.56;;;11.96;34.39
61554;BME280;47425;51.976;5.326;2023-02-28T12:20:02;102976.53;;;11.66;33.97
61554;BME280;47425;51.976;5.326;2023-02-28T12:22:38;102990.75;;;11.07;32.07
61554;BME280;47425;51.976;5.326;2023-02-28T12:28:07;102982.63;;;10.85;32.97
61554;BME280;47425;51.976;5.326;2023-02-28T12:30:41;102977.06;;;10.62;31.97
61554;BME280;47425;51.976;5.326;2023-02-28T12:33:16;102985.97;;;10.75;35.86
61554;BME280;47425;51.976;5.326;2023-02-28T12:38:36;102973.91;;;10.86;36.01
61554;BME280;47425;51.976;5.326;2023-02-28T12:41:27;102965.75;;;11.38;35.96
61554;BME280;47425;51.976;5.326;2023-02-28T12:44:03;102974.00;;;11.80;36.53
61554;BME280;47425;51.976;5.326;2023-02-28T12:46:35;102967.16;;;11.95;34.60
61554;BME280;47425;51.976;5.326;2023-02-28T12:49:06;102966.97;;;11.76;32.98
61554;BME280;47425;51.976;5.326;2023-02-28T12:51:36;102974.28;;;11.19;31.22
61554;BME280;47425;51.976;5.326;2023-02-28T12:54:09;102961.63;;;10.21;29.87
61554;BME280;47425;51.976;5.326;2023-02-28T12:56:40;102955.91;;;9.91;31.51
61554;BME280;47425;51.976;5.326;2023-02-28T12:59:30;102957.69;;;9.93;34.12
61554;BME280;47425;51.976;5.326;2023-02-28T13:02:02;102956.88;;;9.97;32.72
61554;BME280;47425;51.976;5.326;2023-02-28T13:07:36;102947.38;;;10.03;32.40
61554;BME280;47425;51.976;5.326;2023-02-28T13:10:11;102944.31;;;10.32;36.25
61554;BME280;47425;51.976;5.326;2023-02-28T13:12:41;102944.03;;;10.72;35.18
61554;BME280;47425;51.976;5.326;2023-02-28T13:15:16;102946.03;;;10.93;34.32
61554;BME280;47425;51.976;5.326;2023-02-28T13:17:58;102943.03;;;11.40;37.92
61554;BME280;47425;51.976;5.326;2023-02-28T13:20:48;102942.56;;;11.88;35.64
61554;BME280;47425;51.976;5.326;2023-02-28T13:29:45;102928.09;;;12.42;35.02
61554;BME280;47425;51.976;5.326;2023-02-28T13:35:14;102929.22;;;13.05;33.14
61554;BME280;47425;51.976;5.326;2023-02-28T13:37:44;102932.72;;;13.08;34.36
61554;BME280;47425;51.976;5.326;2023-02-28T13:40:31;102926.47;;;12.74;31.92
61554;BME280;47425;51.976;5.326;2023-02-28T13:43:06;102923.53;;;12.15;31.26
61554;BME280;47425;51.976;5.326;2023-02-28T13:45:36;102916.34;;;11.91;32.11
61554;BME280;47425;51.976;5.326;2023-02-28T13:48:15;102921.75;;;12.08;34.62
61554;BME280;47425;51.976;5.326;2023-02-28T13:50:43;102922.63;;;12.08;32.51
61554;BME280;47425;51.976;5.326;2023-02-28T13:53:21;102913.88;;;12.09;34.26
61554;BME280;47425;51.976;5.326;2023-02-28T13:55:56;102914.78;;;12.16;33.23
61554;BME280;47425;51.976;5.326;2023-02-28T13:58:32;102911.34;;;12.25;34.83
61554;BME280;47425;51.976;5.326;2023-02-28T14:01:16;102906.09;;;12.23;33.73
61554;BME280;47425;51.976;5.326;2023-02-28T14:04:03;102900.44;;;11.71;31.27
61554;BME280;47425;51.976;5.326;2023-02-28T14:06:37;102894.22;;;11.61;33.91
61554;BME280;47425;51.976;5.326;2023-02-28T14:09:06;102900.06;;;11.29;30.41
61554;BME280;47425;51.976;5.326;2023-02-28T14:11:42;102891.41;;;10.58;28.59
61554;BME280;47425;51.976;5.326;2023-02-28T14:17:14;102889.97;;;10.17;30.46
61554;BME280;47425;51.976;5.326;2023-02-28T14:19:43;102881.75;;;9.91;29.53
61554;BME280;47425;51.976;5.326;2023-02-28T14:25:04;102890.38;;;10.44;34.40
61554;BME280;47425;51.976;5.326;2023-02-28T14:27:40;102884.22;;;10.41;32.00
61554;BME280;47425;51.976;5.326;2023-02-28T14:33:18;102890.31;;;10.40;31.52
61554;BME280;47425;51.976;5.326;2023-02-28T14:36:03;102884.19;;;9.80;28.72
61554;BME280;47425;51.976;5.326;2023-02-28T14:39:04;102895.63;;;9.33;30.38
61554;BME280;47425;51.976;5.326;2023-02-28T14:41:29;102888.00;;;9.46;31.06
61554;BME280;47425;51.976;5.326;2023-02-28T14:44:13;102887.25;;;9.54;32.47
61554;BME280;47425;51.976;5.326;2023-02-28T14:46:45;102887.81;;;9.35;29.58
61554;BME280;47425;51.976;5.326;2023-02-28T14:49:32;102889.44;;;9.28;30.98
61554;BME280;47425;51.976;5.326;2023-02-28T14:52:35;102888.88;;;8.97;29.52
61554;BME280;47425;51.976;5.326;2023-02-28T14:55:12;102892.94;;;8.83;29.83